sensor_id;sensor_type;location;lat;lon;timestamp;pressure;altitude;pressure_sealevel;temperature;humidity
17309;BME280;8772;42.804;23.426;2023-12-04T00:02:13;75196.72;;;-140.58;73.11
17309;BME280;8772;42.804;23.426;2023-12-04T00:04:40;75200.81;;;-140.58;73.18
17309;BME280;8772;42.804;23.426;2023-12-04T00:07:07;75202.88;;;-140.58;73.11
17309;BME280;8772;42.804;23.426;2023-12-04T00:09:33;75213.13;;;-140.58;74.00
17309;BME280;8772;42.804;23.426;2023-12-04T00:12:02;75200.81;;;-140.58;72.59
17309;BME280;8772;42.804;23.426;2023-12-04T00:14:29;75217.25;;;-140.58;73.10
17309;BME280;8772;42.804;23.426;2023-12-04T00:16:56;75213.13;;;-140.58;73.33
17309;BME280;8772;42.804;23.426;2023-12-04T00:19:23;75204.94;;;-140.58;73.57
17309;BME280;8772;42.804;23.426;2023-12-04T00:21:50;75200.81;;;-140.58;71.80
17309;BME280;8772;42.804;23.426;2023-12-04T00:24:17;75206.97;;;-140.58;71.70
17309;BME280;8772;42.804;23.426;2023-12-04T00:26:44;75221.34;;;-140.58;72.52
17309;BME280;8772;42.804;23.426;2023-12-04T00:29:12;75217.25;;;-140.58;72.87
17309;BME280;8772;42.804;23.426;2023-12-04T00:31:39;75221.34;;;-140.58;72.58
17309;BME280;8772;42.804;23.426;2023-12-04T00:34:06;75233.66;;;-140.58;73.27
17309;BME280;8772;42.804;23.426;2023-12-04T00:36:33;75225.44;;;-140.58;72.61
17309;BME280;8772;42.804;23.426;2023-12-04T00:39:00;75229.56;;;-140.58;72.89
17309;BME280;8772;42.804;23.426;2023-12-04T00:41:26;75231.59;;;-140.58;71.66
17309;BME280;8772;42.804;23.426;2023-12-04T00:43:53;75243.91;;;-140.58;71.01
17309;BME280;8772;42.804;23.426;2023-12-04T00:46:22;75248.03;;;-140.58;70.97
17309;BME280;8772;42.804;23.426;2023-12-04T00:48:48;75245.97;;;-140.58;70.44
17309;BME280;8772;42.804;23.426;2023-12-04T00:51:15;75258.28;;;-140.58;71.39
17309;BME280;8772;42.804;23.426;2023-12-04T00:53:42;75258.28;;;-140.58;72.09
17309;BME280;8772;42.804;23.426;2023-12-04T00:56:10;75258.28;;;-140.58;72.35
17309;BME280;8772;42.804;23.426;2023-12-04T00:58:37;75252.13;;;-140.58;72.30
17309;BME280;8772;42.804;23.426;2023-12-04T01:01:04;75258.28;;;-140.58;72.32
17309;BME280;8772;42.804;23.426;2023-12-04T01:06:54;75258.28;;;-140.58;72.03
17309;BME280;8772;42.804;23.426;2023-12-04T01:09:21;75258.28;;;-140.58;71.74
17309;BME280;8772;42.804;23.426;2023-12-04T01:11:50;75264.44;;;-140.58;72.12
17309;BME280;8772;42.804;23.426;2023-12-04T01:14:16;75270.59;;;-140.58;72.45
17309;BME280;8772;42.804;23.426;2023-12-04T01:16:44;75268.53;;;-140.58;71.60
17309;BME280;8772;42.804;23.426;2023-12-04T01:19:10;75272.66;;;-140.58;71.94
17309;BME280;8772;42.804;23.426;2023-12-04T01:21:37;75274.69;;;-140.58;72.30
17309;BME280;8772;42.804;23.426;2023-12-04T01:24:06;75266.50;;;-140.58;72.34
17309;BME280;8772;42.804;23.426;2023-12-04T01:26:33;75262.38;;;-140.58;71.26
17309;BME280;8772;42.804;23.426;2023-12-04T01:29:00;75266.50;;;-140.58;70.37
17309;BME280;8772;42.804;23.426;2023-12-04T01:31:26;75270.59;;;-140.58;69.91
17309;BME280;8772;42.804;23.426;2023-12-04T01:33:53;75274.69;;;-140.58;70.54
17309;BME280;8772;42.804;23.426;2023-12-04T01:36:20;75280.84;;;-140.58;70.35
17309;BME280;8772;42.804;23.426;2023-12-04T01:38:47;75301.38;;;-140.58;71.08
17309;BME280;8772;42.804;23.426;2023-12-04T01:41:15;75291.13;;;-140.58;71.85
17309;BME280;8772;42.804;23.426;2023-12-04T01:43:42;75287.03;;;-140.58;71.47
17309;BME280;8772;42.804;23.426;2023-12-04T01:46:10;75287.03;;;-140.58;71.98
17309;BME280;8772;42.804;23.426;2023-12-04T01:48:37;75278.81;;;-140.58;70.97
17309;BME280;8772;42.804;23.426;2023-12-04T01:51:07;75291.13;;;-140.58;69.69
17309;BME280;8772;42.804;23.426;2023-12-04T01:53:36;75284.97;;;-140.58;69.76
17309;BME280;8772;42.804;23.426;2023-12-04T01:56:06;75295.22;;;-140.58;70.48
17309;BME280;8772;42.804;23.426;2023-12-04T01:58:35;75295.22;;;-140.58;69.63
17309;BME280;8772;42.804;23.426;2023-12-04T02:01:02;75307.53;;;-140.58;70.10
17309;BME280;8772;42.804;23.426;2023-12-04T02:03:30;75315.75;;;-140.58;70.98
17309;BME280;8772;42.804;23.426;2023-12-04T02:05:59;75313.69;;;-140.58;70.74
17309;BME280;8772;42.804;23.426;2023-12-04T02:08:28;75311.66;;;-140.58;70.06
17309;BME280;8772;42.804;23.426;2023-12-04T02:10:55;75311.66;;;-140.58;70.95
17309;BME280;8772;42.804;23.426;2023-12-04T02:13:22;75311.66;;;-140.58;71.88
17309;BME280;8772;42.804;23.426;2023-12-04T02:15:53;75311.66;;;-140.58;71.13
17309;BME280;8772;42.804;23.426;2023-12-04T02:18:21;75311.66;;;-140.58;71.08
17309;BME280;8772;42.804;23.426;2023-12-04T02:20:48;75323.97;;;-140.58;70.35
17309;BME280;8772;42.804;23.426;2023-12-04T02:23:15;75344.47;;;-140.58;71.55
17309;BME280;8772;42.804;23.426;2023-12-04T02:25:44;75348.59;;;-140.58;69.28
17309;BME280;8772;42.804;23.426;2023-12-04T02:28:13;75369.09;;;-140.58;70.06
17309;BME280;8772;42.804;23.426;2023-12-04T02:30:43;75383.47;;;-140.58;70.42
17309;BME280;8772;42.804;23.426;2023-12-04T02:33:13;75381.44;;;-140.58;69.63
17309;BME280;8772;42.804;23.426;2023-12-04T02:35:42;75377.31;;;-140.58;69.06
17309;BME280;8772;42.804;23.426;2023-12-04T02:38:09;75395.78;;;-140.58;70.21
17309;BME280;8772;42.804;23.426;2023-12-04T02:40:37;75401.94;;;-140.58;70.67
17309;BME280;8772;42.804;23.426;2023-12-04T02:43:05;75399.91;;;-140.58;70.02
17309;BME280;8772;42.804;23.426;2023-12-04T02:45:32;75414.25;;;-140.58;70.84
17309;BME280;8772;42.804;23.426;2023-12-04T02:47:59;75416.31;;;-140.58;70.67
17309;BME280;8772;42.804;23.426;2023-12-04T02:50:25;75406.06;;;-140.58;69.09
17309;BME280;8772;42.804;23.426;2023-12-04T02:52:52;75410.16;;;-140.58;69.58
17309;BME280;8772;42.804;23.426;2023-12-04T02:55:19;75422.47;;;-140.58;70.04
17309;BME280;8772;42.804;23.426;2023-12-04T02:57:46;75422.47;;;-140.58;70.10
17309;BME280;8772;42.804;23.426;2023-12-04T03:00:15;75420.41;;;-140.58;70.14
17309;BME280;8772;42.804;23.426;2023-12-04T03:02:41;75420.41;;;-140.58;69.91
17309;BME280;8772;42.804;23.426;2023-12-04T03:05:09;75418.38;;;-140.58;70.20
17309;BME280;8772;42.804;23.426;2023-12-04T03:07:36;75418.38;;;-140.58;70.41
17309;BME280;8772;42.804;23.426;2023-12-04T03:10:03;75414.25;;;-140.58;70.87
17309;BME280;8772;42.804;23.426;2023-12-04T03:12:30;75420.41;;;-140.58;71.13
17309;BME280;8772;42.804;23.426;2023-12-04T03:14:57;75414.25;;;-140.58;70.77
17309;BME280;8772;42.804;23.426;2023-12-04T03:17:26;75414.25;;;-140.58;70.70
17309;BME280;8772;42.804;23.426;2023-12-04T03:19:53;75418.38;;;-140.58;69.66
17309;BME280;8772;42.804;23.426;2023-12-04T03:22:20;75434.78;;;-140.58;69.81
17309;BME280;8772;42.804;23.426;2023-12-04T03:24:47;75451.22;;;-140.58;69.89
17309;BME280;8772;42.804;23.426;2023-12-04T03:27:14;75453.25;;;-140.58;69.55
17309;BME280;8772;42.804;23.426;2023-12-04T03:29:40;75463.53;;;-140.58;69.93
17309;BME280;8772;42.804;23.426;2023-12-04T03:32:07;75457.38;;;-140.58;70.15
17309;BME280;8772;42.804;23.426;2023-12-04T03:34:36;75459.41;;;-140.58;69.62
17309;BME280;8772;42.804;23.426;2023-12-04T03:37:03;75461.47;;;-140.58;69.84
17309;BME280;8772;42.804;23.426;2023-12-04T03:39:30;75463.53;;;-140.58;69.79
17309;BME280;8772;42.804;23.426;2023-12-04T03:41:56;75459.41;;;-140.58;69.18
17309;BME280;8772;42.804;23.426;2023-12-04T03:44:23;75451.22;;;-140.58;68.49
17309;BME280;8772;42.804;23.426;2023-12-04T03:46:50;75463.53;;;-140.58;69.55
17309;BME280;8772;42.804;23.426;2023-12-04T03:49:17;75459.41;;;-140.58;70.86
17309;BME280;8772;42.804;23.426;2023-12-04T03:51:46;75459.41;;;-140.58;71.07
17309;BME280;8772;42.804;23.426;2023-12-04T03:54:12;75459.41;;;-140.58;70.27
17309;BME280;8772;42.804;23.426;2023-12-04T03:56:39;75453.25;;;-140.58;69.16
17309;BME280;8772;42.804;23.426;2023-12-04T03:59:09;75451.22;;;-140.58;69.03
17309;BME280;8772;42.804;23.426;2023-12-04T04:01:36;75455.31;;;-140.58;68.77
17309;BME280;8772;42.804;23.426;2023-12-04T04:04:03;75461.47;;;-140.58;69.29
17309;BME280;8772;42.804;23.426;2023-12-04T04:06:30;75463.53;;;-140.58;69.18
17309;BME280;8772;42.804;23.426;2023-12-04T04:08:58;75461.47;;;-140.58;69.81
17309;BME280;8772;42.804;23.426;2023-12-04T04:11:25;75463.53;;;-140.58;68.98
17309;BME280;8772;42.804;23.426;2023-12-04T04:13:52;75449.16;;;-140.58;69.39
17309;BME280;8772;42.804;23.426;2023-12-04T04:16:19;75457.38;;;-140.58;68.93
17309;BME280;8772;42.804;23.426;2023-12-04T04:18:45;75459.41;;;-140.58;69.08
17309;BME280;8772;42.804;23.426;2023-12-04T04:21:12;75451.22;;;-140.58;69.16
17309;BME280;8772;42.804;23.426;2023-12-04T04:23:39;75455.31;;;-140.58;68.67
17309;BME280;8772;42.804;23.426;2023-12-04T04:26:08;75455.31;;;-140.58;68.34
17309;BME280;8772;42.804;23.426;2023-12-04T04:28:34;75455.31;;;-140.58;67.83
17309;BME280;8772;42.804;23.426;2023-12-04T04:31:02;75463.53;;;-140.58;68.19
17309;BME280;8772;42.804;23.426;2023-12-04T04:33:29;75455.31;;;-140.58;68.07
17309;BME280;8772;42.804;23.426;2023-12-04T04:35:56;75455.31;;;-140.58;67.57
17309;BME280;8772;42.804;23.426;2023-12-04T04:38:22;75457.38;;;-140.58;67.88
17309;BME280;8772;42.804;23.426;2023-12-04T04:40:49;75459.41;;;-140.58;67.90
17309;BME280;8772;42.804;23.426;2023-12-04T04:43:19;75463.53;;;-140.58;67.48
17309;BME280;8772;42.804;23.426;2023-12-04T04:45:46;75463.53;;;-140.58;67.57
17309;BME280;8772;42.804;23.426;2023-12-04T04:48:13;75467.63;;;-140.58;67.37
17309;BME280;8772;42.804;23.426;2023-12-04T04:50:40;75473.78;;;-140.58;68.34
17309;BME280;8772;42.804;23.426;2023-12-04T04:53:07;75473.78;;;-140.58;68.13
17309;BME280;8772;42.804;23.426;2023-12-04T04:55:33;75473.78;;;-140.58;66.97
17309;BME280;8772;42.804;23.426;2023-12-04T04:58:00;75479.94;;;-140.58;66.30
17309;BME280;8772;42.804;23.426;2023-12-04T05:00:28;75477.88;;;-140.58;66.25
17309;BME280;8772;42.804;23.426;2023-12-04T05:02:55;75486.09;;;-140.58;67.56
17309;BME280;8772;42.804;23.426;2023-12-04T05:05:22;75488.16;;;-140.58;66.29
17309;BME280;8772;42.804;23.426;2023-12-04T05:07:49;75484.03;;;-140.58;66.39
17309;BME280;8772;42.804;23.426;2023-12-04T05:10:16;75502.53;;;-140.58;67.17
17309;BME280;8772;42.804;23.426;2023-12-04T05:12:43;75504.56;;;-140.58;67.60
17309;BME280;8772;42.804;23.426;2023-12-04T05:15:10;75500.47;;;-140.58;66.87
17309;BME280;8772;42.804;23.426;2023-12-04T05:17:38;75512.78;;;-140.58;67.74
17309;BME280;8772;42.804;23.426;2023-12-04T05:20:06;75516.88;;;-140.58;67.68
17309;BME280;8772;42.804;23.426;2023-12-04T05:22:34;75514.84;;;-140.58;67.77
17309;BME280;8772;42.804;23.426;2023-12-04T05:25:02;75516.88;;;-140.58;67.47
17309;BME280;8772;42.804;23.426;2023-12-04T05:27:29;75508.69;;;-140.58;67.18
17309;BME280;8772;42.804;23.426;2023-12-04T05:29:56;75512.78;;;-140.58;67.13
17309;BME280;8772;42.804;23.426;2023-12-04T05:32:22;75512.78;;;-140.58;67.48
17309;BME280;8772;42.804;23.426;2023-12-04T05:34:51;75506.63;;;-140.58;67.26
17309;BME280;8772;42.804;23.426;2023-12-04T05:37:17;75496.34;;;-140.58;66.43
17309;BME280;8772;42.804;23.426;2023-12-04T05:39:44;75506.63;;;-140.58;67.56
17309;BME280;8772;42.804;23.426;2023-12-04T05:42:12;75506.63;;;-140.58;68.28
17309;BME280;8772;42.804;23.426;2023-12-04T05:44:39;75510.72;;;-140.58;67.36
17309;BME280;8772;42.804;23.426;2023-12-04T05:47:05;75516.88;;;-140.58;67.72
17309;BME280;8772;42.804;23.426;2023-12-04T05:49:33;75518.94;;;-140.58;67.34
17309;BME280;8772;42.804;23.426;2023-12-04T05:52:02;75508.69;;;-140.58;67.03
17309;BME280;8772;42.804;23.426;2023-12-04T05:54:28;75512.78;;;-140.58;66.95
17309;BME280;8772;42.804;23.426;2023-12-04T05:56:55;75518.94;;;-140.58;67.09
17309;BME280;8772;42.804;23.426;2023-12-04T05:59:22;75525.09;;;-140.58;67.28
17309;BME280;8772;42.804;23.426;2023-12-04T06:01:49;75541.50;;;-140.58;67.90
17309;BME280;8772;42.804;23.426;2023-12-04T06:04:16;75533.31;;;-140.58;67.61
17309;BME280;8772;42.804;23.426;2023-12-04T06:06:43;75531.25;;;-140.58;68.22
17309;BME280;8772;42.804;23.426;2023-12-04T06:09:11;75527.16;;;-140.58;68.30
17309;BME280;8772;42.804;23.426;2023-12-04T06:11:38;75529.19;;;-140.58;68.30
17309;BME280;8772;42.804;23.426;2023-12-04T06:14:05;75521.00;;;-140.58;67.69
17309;BME280;8772;42.804;23.426;2023-12-04T06:16:32;75508.69;;;-140.58;67.45
17309;BME280;8772;42.804;23.426;2023-12-04T06:18:59;75504.56;;;-140.58;67.84
17309;BME280;8772;42.804;23.426;2023-12-04T06:21:26;75502.53;;;-140.58;68.33
17309;BME280;8772;42.804;23.426;2023-12-04T06:23:53;75500.47;;;-140.58;68.06
17309;BME280;8772;42.804;23.426;2023-12-04T06:26:23;75494.31;;;-140.58;67.87
17309;BME280;8772;42.804;23.426;2023-12-04T06:28:51;75498.41;;;-140.58;67.30
17309;BME280;8772;42.804;23.426;2023-12-04T06:31:18;75506.63;;;-140.58;66.47
17309;BME280;8772;42.804;23.426;2023-12-04T06:33:45;75512.78;;;-140.58;66.38
17309;BME280;8772;42.804;23.426;2023-12-04T06:36:13;75512.78;;;-140.58;66.91
17309;BME280;8772;42.804;23.426;2023-12-04T06:38:42;75508.69;;;-140.58;67.26
17309;BME280;8772;42.804;23.426;2023-12-04T06:41:11;75512.78;;;-140.58;65.97
17309;BME280;8772;42.804;23.426;2023-12-04T06:43:40;75516.88;;;-140.58;65.94
17309;BME280;8772;42.804;23.426;2023-12-04T06:46:08;75521.00;;;-140.58;66.31
17309;BME280;8772;42.804;23.426;2023-12-04T06:48:36;75516.88;;;-140.58;65.38
17309;BME280;8772;42.804;23.426;2023-12-04T06:51:03;75527.16;;;-140.58;66.10
17309;BME280;8772;42.804;23.426;2023-12-04T06:53:30;75529.19;;;-140.58;66.25
17309;BME280;8772;42.804;23.426;2023-12-04T06:55:57;75521.00;;;-140.58;66.90
17309;BME280;8772;42.804;23.426;2023-12-04T06:58:24;75523.03;;;-140.58;65.66
17309;BME280;8772;42.804;23.426;2023-12-04T07:00:52;75521.00;;;-140.58;65.24
17309;BME280;8772;42.804;23.426;2023-12-04T07:03:19;75527.16;;;-140.58;64.94
17309;BME280;8772;42.804;23.426;2023-12-04T07:05:46;75523.03;;;-140.58;63.49
17309;BME280;8772;42.804;23.426;2023-12-04T07:08:13;75527.16;;;-140.58;64.50
17309;BME280;8772;42.804;23.426;2023-12-04T07:10:40;75514.84;;;-140.58;65.77
17309;BME280;8772;42.804;23.426;2023-12-04T07:13:07;75516.88;;;-140.58;64.38
17309;BME280;8772;42.804;23.426;2023-12-04T07:15:34;75508.69;;;-140.58;64.59
17309;BME280;8772;42.804;23.426;2023-12-04T07:18:02;75508.69;;;-140.58;64.61
17309;BME280;8772;42.804;23.426;2023-12-04T07:20:29;75500.47;;;-140.58;64.48
17309;BME280;8772;42.804;23.426;2023-12-04T07:22:56;75496.34;;;-140.58;64.60
17309;BME280;8772;42.804;23.426;2023-12-04T07:25:24;75494.31;;;-140.58;64.66
17309;BME280;8772;42.804;23.426;2023-12-04T07:27:51;75492.25;;;-140.58;65.23
17309;BME280;8772;42.804;23.426;2023-12-04T07:30:18;75484.03;;;-140.58;65.17
17309;BME280;8772;42.804;23.426;2023-12-04T07:32:46;75479.94;;;-140.58;64.76
17309;BME280;8772;42.804;23.426;2023-12-04T07:35:14;75475.84;;;-140.58;63.96
17309;BME280;8772;42.804;23.426;2023-12-04T07:37:43;75479.94;;;-140.58;63.45
17309;BME280;8772;42.804;23.426;2023-12-04T07:40:11;75475.84;;;-140.58;62.86
17309;BME280;8772;42.804;23.426;2023-12-04T07:42:38;75479.94;;;-140.58;63.19
17309;BME280;8772;42.804;23.426;2023-12-04T07:45:06;75482.00;;;-140.58;63.40
17309;BME280;8772;42.804;23.426;2023-12-04T07:47:33;75473.78;;;-140.58;63.04
17309;BME280;8772;42.804;23.426;2023-12-04T07:50:00;75475.84;;;-140.58;64.15
17309;BME280;8772;42.804;23.426;2023-12-04T07:52:28;75471.72;;;-140.58;63.02
17309;BME280;8772;42.804;23.426;2023-12-04T07:54:55;75463.53;;;-140.58;62.80
17309;BME280;8772;42.804;23.426;2023-12-04T07:57:22;75463.53;;;-140.58;63.22
17309;BME280;8772;42.804;23.426;2023-12-04T07:59:49;75453.25;;;-140.58;63.36
17309;BME280;8772;42.804;23.426;2023-12-04T08:02:15;75461.47;;;-140.58;63.36
17309;BME280;8772;42.804;23.426;2023-12-04T08:04:42;75459.41;;;-140.58;62.54
17309;BME280;8772;42.804;23.426;2023-12-04T08:07:09;75463.53;;;-140.58;63.07
17309;BME280;8772;42.804;23.426;2023-12-04T08:09:37;75467.63;;;-140.58;62.37
17309;BME280;8772;42.804;23.426;2023-12-04T08:12:04;75463.53;;;-140.58;62.56
17309;BME280;8772;42.804;23.426;2023-12-04T08:14:31;75455.31;;;-140.58;63.49
17309;BME280;8772;42.804;23.426;2023-12-04T08:16:59;75447.09;;;-140.58;63.61
17309;BME280;8772;42.804;23.426;2023-12-04T08:19:25;75436.84;;;-140.58;62.97
17309;BME280;8772;42.804;23.426;2023-12-04T08:21:53;75430.69;;;-140.58;63.25
17309;BME280;8772;42.804;23.426;2023-12-04T08:24:19;75426.56;;;-140.58;62.97
17309;BME280;8772;42.804;23.426;2023-12-04T08:26:48;75436.84;;;-140.58;63.76
17309;BME280;8772;42.804;23.426;2023-12-04T08:29:16;75434.78;;;-140.58;63.43
17309;BME280;8772;42.804;23.426;2023-12-04T08:31:43;75418.38;;;-140.58;63.30
17309;BME280;8772;42.804;23.426;2023-12-04T08:34:10;75414.25;;;-140.58;63.69
17309;BME280;8772;42.804;23.426;2023-12-04T08:36:36;75399.91;;;-140.58;61.87
17309;BME280;8772;42.804;23.426;2023-12-04T08:39:03;75389.63;;;-140.58;62.44
17309;BME280;8772;42.804;23.426;2023-12-04T08:41:30;75369.09;;;-140.58;62.60
17309;BME280;8772;42.804;23.426;2023-12-04T08:43:59;75367.06;;;-140.58;61.85
17309;BME280;8772;42.804;23.426;2023-12-04T08:46:26;75360.91;;;-140.58;62.28
17309;BME280;8772;42.804;23.426;2023-12-04T08:48:53;75356.78;;;-140.58;62.69
17309;BME280;8772;42.804;23.426;2023-12-04T08:51:20;75350.63;;;-140.58;62.02
17309;BME280;8772;42.804;23.426;2023-12-04T08:53:47;75348.59;;;-140.58;62.03
17309;BME280;8772;42.804;23.426;2023-12-04T08:56:13;75332.16;;;-140.58;61.71
17309;BME280;8772;42.804;23.426;2023-12-04T08:58:40;75328.06;;;-140.58;61.95
17309;BME280;8772;42.804;23.426;2023-12-04T09:01:08;75317.81;;;-140.58;61.17
17309;BME280;8772;42.804;23.426;2023-12-04T09:03:36;75299.34;;;-140.58;61.00
17309;BME280;8772;42.804;23.426;2023-12-04T09:06:03;75295.22;;;-140.58;61.11
17309;BME280;8772;42.804;23.426;2023-12-04T09:08:30;75287.03;;;-140.58;61.07
17309;BME280;8772;42.804;23.426;2023-12-04T09:10:58;75268.53;;;-140.58;61.00
17309;BME280;8772;42.804;23.426;2023-12-04T09:13:25;75256.22;;;-140.58;60.08
17309;BME280;8772;42.804;23.426;2023-12-04T09:15:52;75245.97;;;-140.58;59.88
17309;BME280;8772;42.804;23.426;2023-12-04T09:18:20;75266.50;;;-140.58;58.76
17309;BME280;8772;42.804;23.426;2023-12-04T09:20:47;75278.81;;;-140.58;57.20
17309;BME280;8772;42.804;23.426;2023-12-04T09:23:14;75270.59;;;-140.58;59.31
17309;BME280;8772;42.804;23.426;2023-12-04T09:25:41;75258.28;;;-140.58;59.69
17309;BME280;8772;42.804;23.426;2023-12-04T09:28:07;75250.06;;;-140.58;60.06
17309;BME280;8772;42.804;23.426;2023-12-04T09:30:36;75245.97;;;-140.58;59.74
17309;BME280;8772;42.804;23.426;2023-12-04T09:33:03;75233.66;;;-140.58;59.73
17309;BME280;8772;42.804;23.426;2023-12-04T09:35:33;75221.34;;;-140.58;59.93
17309;BME280;8772;42.804;23.426;2023-12-04T09:38:00;75221.34;;;-140.58;58.14
17309;BME280;8772;42.804;23.426;2023-12-04T09:40:27;75213.13;;;-140.58;59.52
17309;BME280;8772;42.804;23.426;2023-12-04T09:42:54;75211.09;;;-140.58;58.06
17309;BME280;8772;42.804;23.426;2023-12-04T09:45:23;75184.41;;;-140.58;57.81
17309;BME280;8772;42.804;23.426;2023-12-04T09:47:51;75176.19;;;-140.58;58.29
17309;BME280;8772;42.804;23.426;2023-12-04T09:50:18;75167.97;;;-140.58;58.87
17309;BME280;8772;42.804;23.426;2023-12-04T09:52:51;75155.66;;;-140.58;59.11
17309;BME280;8772;42.804;23.426;2023-12-04T09:55:18;75149.50;;;-140.58;58.52
17309;BME280;8772;42.804;23.426;2023-12-04T09:57:45;75149.50;;;-140.58;56.77
17309;BME280;8772;42.804;23.426;2023-12-04T10:00:15;75149.50;;;-140.58;58.42
17309;BME280;8772;42.804;23.426;2023-12-04T10:02:42;75159.78;;;-140.58;57.43
17309;BME280;8772;42.804;23.426;2023-12-04T10:05:09;75155.66;;;-140.58;57.75
17309;BME280;8772;42.804;23.426;2023-12-04T10:07:36;75159.78;;;-140.58;58.70
17309;BME280;8772;42.804;23.426;2023-12-04T10:10:05;75141.31;;;-140.58;57.03
17309;BME280;8772;42.804;23.426;2023-12-04T10:12:33;75147.47;;;-140.58;57.25
17309;BME280;8772;42.804;23.426;2023-12-04T10:15:06;75147.47;;;-140.58;58.52
17309;BME280;8772;42.804;23.426;2023-12-04T10:17:34;75135.16;;;-140.58;55.78
17309;BME280;8772;42.804;23.426;2023-12-04T10:20:07;75135.16;;;-140.58;57.75
17309;BME280;8772;42.804;23.426;2023-12-04T10:22:54;75151.56;;;-140.58;58.14
17309;BME280;8772;42.804;23.426;2023-12-04T10:25:23;75137.19;;;-140.58;58.36
17309;BME280;8772;42.804;23.426;2023-12-04T10:27:51;75126.94;;;-140.58;58.09
17309;BME280;8772;42.804;23.426;2023-12-04T10:30:25;75096.16;;;-140.58;58.38
17309;BME280;8772;42.804;23.426;2023-12-04T10:32:56;75081.78;;;-140.58;56.97
17309;BME280;8772;42.804;23.426;2023-12-04T10:35:26;75057.16;;;-140.58;56.71
17309;BME280;8772;42.804;23.426;2023-12-04T10:37:56;75059.22;;;-140.58;57.50
17309;BME280;8772;42.804;23.426;2023-12-04T10:40:25;75040.75;;;-140.58;57.47
17309;BME280;8772;42.804;23.426;2023-12-04T10:43:10;75040.75;;;-140.58;53.35
17309;BME280;8772;42.804;23.426;2023-12-04T10:45:37;75042.78;;;-140.58;53.79
17309;BME280;8772;42.804;23.426;2023-12-04T10:48:05;75036.66;;;-140.58;55.47
17309;BME280;8772;42.804;23.426;2023-12-04T10:50:32;75036.66;;;-140.58;57.01
17309;BME280;8772;42.804;23.426;2023-12-04T10:53:01;75046.91;;;-140.58;54.73
17309;BME280;8772;42.804;23.426;2023-12-04T10:55:31;75051.00;;;-140.58;57.26
17309;BME280;8772;42.804;23.426;2023-12-04T10:57:59;75051.00;;;-140.58;56.63
17309;BME280;8772;42.804;23.426;2023-12-04T11:00:28;75044.84;;;-140.58;57.63
17309;BME280;8772;42.804;23.426;2023-12-04T11:02:56;75024.31;;;-140.58;57.67
17309;BME280;8772;42.804;23.426;2023-12-04T11:05:26;75016.13;;;-140.58;57.70
17309;BME280;8772;42.804;23.426;2023-12-04T11:07:56;74999.69;;;-140.58;58.11
17309;BME280;8772;42.804;23.426;2023-12-04T11:10:26;74997.66;;;-140.58;58.06
17309;BME280;8772;42.804;23.426;2023-12-04T11:13:00;74987.38;;;-140.58;58.53
17309;BME280;8772;42.804;23.426;2023-12-04T11:15:29;74987.38;;;-140.58;57.89
17309;BME280;8772;42.804;23.426;2023-12-04T11:17:59;74993.53;;;-140.58;57.62
17309;BME280;8772;42.804;23.426;2023-12-04T11:20:29;74983.28;;;-140.58;57.81
17309;BME280;8772;42.804;23.426;2023-12-04T11:22:57;74970.97;;;-140.58;57.80
17309;BME280;8772;42.804;23.426;2023-12-04T11:25:25;74966.88;;;-140.58;58.15
17309;BME280;8772;42.804;23.426;2023-12-04T11:27:56;74966.88;;;-140.58;58.80
17309;BME280;8772;42.804;23.426;2023-12-04T11:30:23;74979.19;;;-140.58;58.63
17309;BME280;8772;42.804;23.426;2023-12-04T11:32:51;74962.75;;;-140.58;59.37
17309;BME280;8772;42.804;23.426;2023-12-04T11:35:25;75012.00;;;-140.58;58.19
17309;BME280;8772;42.804;23.426;2023-12-04T11:37:52;74983.28;;;-140.58;59.36
17309;BME280;8772;42.804;23.426;2023-12-04T11:40:19;74958.66;;;-140.58;59.35
17309;BME280;8772;42.804;23.426;2023-12-04T11:42:47;74966.88;;;-140.58;58.09
17309;BME280;8772;42.804;23.426;2023-12-04T11:45:19;74948.41;;;-140.58;59.58
17309;BME280;8772;42.804;23.426;2023-12-04T11:47:50;74934.03;;;-140.58;59.82
17309;BME280;8772;42.804;23.426;2023-12-04T11:50:19;74925.81;;;-140.58;59.60
17309;BME280;8772;42.804;23.426;2023-12-04T11:52:46;74911.47;;;-140.58;58.74
17309;BME280;8772;42.804;23.426;2023-12-04T11:55:16;74905.31;;;-140.58;58.73
17309;BME280;8772;42.804;23.426;2023-12-04T11:57:43;74903.25;;;-140.58;57.37
17309;BME280;8772;42.804;23.426;2023-12-04T12:00:13;74868.38;;;-140.58;58.93
17309;BME280;8772;42.804;23.426;2023-12-04T12:03:01;74845.78;;;-140.58;57.99
17309;BME280;8772;42.804;23.426;2023-12-04T12:05:32;74831.44;;;-140.58;58.27
17309;BME280;8772;42.804;23.426;2023-12-04T12:08:02;74810.91;;;-140.58;58.62
17309;BME280;8772;42.804;23.426;2023-12-04T12:10:29;74800.66;;;-140.58;56.26
17309;BME280;8772;42.804;23.426;2023-12-04T12:12:57;74788.34;;;-140.58;55.79
17309;BME280;8772;42.804;23.426;2023-12-04T12:15:24;74765.75;;;-140.58;56.05
17309;BME280;8772;42.804;23.426;2023-12-04T12:17:53;74782.19;;;-140.58;55.30
17309;BME280;8772;42.804;23.426;2023-12-04T12:20:20;74769.88;;;-140.58;53.67
17309;BME280;8772;42.804;23.426;2023-12-04T12:22:48;74765.75;;;-140.58;53.11
17309;BME280;8772;42.804;23.426;2023-12-04T12:25:15;74739.09;;;-140.58;54.49
17309;BME280;8772;42.804;23.426;2023-12-04T12:27:43;74716.50;;;-140.58;54.73
17309;BME280;8772;42.804;23.426;2023-12-04T12:30:12;74683.69;;;-140.58;54.94
17309;BME280;8772;42.804;23.426;2023-12-04T12:32:38;74669.31;;;-140.58;54.18
17309;BME280;8772;42.804;23.426;2023-12-04T12:35:07;74671.38;;;-140.58;52.63
17309;BME280;8772;42.804;23.426;2023-12-04T12:37:35;74716.50;;;-140.58;53.15
17309;BME280;8772;42.804;23.426;2023-12-04T12:40:03;74675.47;;;-140.58;53.87
17309;BME280;8772;42.804;23.426;2023-12-04T12:42:30;74681.63;;;-140.58;51.42
17309;BME280;8772;42.804;23.426;2023-12-04T12:45:00;74683.69;;;-140.58;51.66
17309;BME280;8772;42.804;23.426;2023-12-04T12:47:27;74667.28;;;-140.58;52.82